createdAt,value
2022-08-19T00:00:44.479Z,94978.78
2022-08-19T00:03:12.205Z,94983.69
2022-08-19T00:05:41.490Z,94991.69
2022-08-19T00:08:09.255Z,94995.44
2022-08-19T00:10:37.008Z,94987.31
2022-08-19T00:16:44.861Z,94989.94
2022-08-19T00:19:12.789Z,94962.97
2022-08-19T00:21:40.731Z,94956.81
2022-08-19T00:24:10.073Z,94948.94
2022-08-19T00:26:38.882Z,94950.31
2022-08-19T00:29:08.650Z,94939.03
2022-08-19T00:31:36.659Z,94929.28
2022-08-19T00:34:05.824Z,94929.44
2022-08-19T00:36:34.052Z,94933.66
2022-08-19T00:39:02.360Z,94936.94
2022-08-19T00:41:30.591Z,94937.16
2022-08-19T00:47:44.967Z,94940.59
2022-08-19T00:50:16.882Z,94935.50
2022-08-19T00:52:48.174Z,94918.94
2022-08-19T00:55:20.771Z,94920.16
2022-08-19T00:57:53.229Z,94909.56
2022-08-19T01:00:22.346Z,94904.69
2022-08-19T01:02:50.191Z,94910.13
2022-08-19T01:05:22.630Z,94919.69
2022-08-19T01:07:52.575Z,94921.75
2022-08-19T01:10:23.975Z,94912.34
2022-08-19T01:12:53.037Z,94908.22
2022-08-19T01:15:23.685Z,94900.97
2022-08-19T01:44:24.886Z,94949.13
2022-08-19T01:46:53.410Z,94951.22
2022-08-19T01:49:23.993Z,94945.78
2022-08-19T01:51:52.038Z,94947.06
2022-08-19T01:54:23.145Z,94959.84
2022-08-19T01:56:59.841Z,94966.56
2022-08-19T01:59:29.461Z,94962.97
2022-08-19T02:01:57.218Z,94963.94
2022-08-19T02:04:26.476Z,94949.72
2022-08-19T02:06:54.303Z,94957.38
2022-08-19T02:09:22.026Z,94949.66
2022-08-19T02:16:51.937Z,94969.25
2022-08-19T02:19:18.285Z,94972.88
2022-08-19T02:21:44.718Z,94969.94
2022-08-19T02:24:13.214Z,94973.69
2022-08-19T02:26:41.071Z,94975.09
2022-08-19T02:29:08.747Z,94981.56
2022-08-19T02:31:36.883Z,94983.59
2022-08-19T02:34:05.957Z,94981.56
2022-08-19T02:36:33.627Z,94980.00
2022-08-19T02:39:00.304Z,94982.47
2022-08-19T02:45:17.018Z,94946.75
2022-08-19T02:47:45.066Z,94928.38
2022-08-19T02:50:14.634Z,94911.75
2022-08-19T02:52:42.727Z,94909.75
2022-08-19T02:55:11.020Z,94907.19
2022-08-19T02:57:38.759Z,94907.19
2022-08-19T03:00:09.043Z,94905.16
2022-08-19T03:02:36.742Z,94896.56
2022-08-19T03:08:54.139Z,94916.81
2022-08-19T03:11:24.410Z,94926.25
2022-08-19T03:13:54.407Z,94934.47
2022-08-19T03:16:24.835Z,94930.59
2022-08-19T03:18:52.990Z,94912.00
2022-08-19T03:21:24.876Z,94907.34
2022-08-19T03:23:56.657Z,94920.03
2022-08-19T03:26:24.427Z,94941.75
2022-08-19T03:28:57.817Z,94952.53
2022-08-19T03:31:44.084Z,94946.63
2022-08-19T03:34:14.193Z,94934.22
2022-08-19T03:41:45.196Z,94944.38
2022-08-19T03:44:17.964Z,94940.72
2022-08-19T03:46:46.344Z,94940.94
2022-08-19T03:49:14.318Z,94936.31
2022-08-19T03:51:42.782Z,94937.47
2022-08-19T03:54:11.534Z,94943.38
2022-08-19T03:56:40.473Z,94943.25
2022-08-19T04:05:29.090Z,94937.97
2022-08-19T04:07:59.005Z,94929.22
2022-08-19T04:10:25.758Z,94926.34
2022-08-19T04:12:52.260Z,94930.13
2022-08-19T04:15:19.268Z,94920.25
2022-08-19T04:17:45.639Z,94925.19
2022-08-19T04:20:12.289Z,94927.69
2022-08-19T04:26:27.522Z,94932.44
2022-08-19T04:28:55.491Z,94929.66
2022-08-19T04:31:26.263Z,94933.41
2022-08-19T04:33:52.833Z,94943.25
2022-08-19T04:36:21.345Z,94961.78
2022-08-19T04:38:47.978Z,94959.31
2022-08-19T04:41:32.932Z,94959.59
2022-08-19T04:49:13.223Z,94967.03
2022-08-19T04:51:42.633Z,94981.03
2022-08-19T04:54:09.460Z,94980.44
2022-08-19T04:56:35.941Z,94977.44
2022-08-19T04:59:03.665Z,94984.00
2022-08-19T05:01:32.647Z,94978.44
2022-08-19T05:04:00.938Z,94985.28
2022-08-19T05:10:53.547Z,95001.03
2022-08-19T05:13:21.750Z,95002.25
2022-08-19T05:15:56.299Z,95001.69
2022-08-19T05:18:41.690Z,94997.84
2022-08-19T05:21:27.969Z,94986.47
2022-08-19T05:35:34.645Z,94981.25
2022-08-19T05:38:02.824Z,94977.78
2022-08-19T05:40:30.608Z,94980.91
2022-08-19T05:42:58.307Z,94980.63
2022-08-19T05:45:26.181Z,94976.28
2022-08-19T05:47:53.838Z,94976.13
2022-08-19T05:50:23.092Z,94977.16
2022-08-19T06:00:41.920Z,94982.22
2022-08-19T06:03:11.850Z,94980.22
2022-08-19T06:05:44.808Z,94986.47
2022-08-19T06:08:19.676Z,94978.53
2022-08-19T06:10:47.512Z,94976.69
2022-08-19T06:13:15.239Z,94982.94
2022-08-19T06:15:45.232Z,94985.66
2022-08-19T06:25:48.595Z,94998.06
2022-08-19T06:28:16.688Z,94995.34
2022-08-19T06:30:46.142Z,94989.44
2022-08-19T06:33:13.892Z,94988.28
2022-08-19T06:43:10.610Z,94990.38
2022-08-19T06:45:40.385Z,94991.25
2022-08-19T07:15:39.779Z,94981.59
2022-08-19T07:18:11.740Z,94972.84
2022-08-19T07:20:40.062Z,94963.75
2022-08-19T07:30:41.663Z,94942.44
2022-08-19T07:33:12.934Z,94941.59
2022-08-19T07:35:42.641Z,94937.13
2022-08-19T07:38:10.615Z,94945.28
2022-08-19T07:40:38.373Z,94932.75
2022-08-19T07:43:11.206Z,94937.06
2022-08-19T07:45:43.328Z,94944.50
2022-08-19T07:48:12.331Z,94951.59
2022-08-19T07:50:40.235Z,94958.31
2022-08-19T07:53:08.002Z,94956.91
2022-08-19T07:55:41.224Z,94961.19
2022-08-19T08:02:00.647Z,94968.31
2022-08-19T08:04:48.337Z,94974.28
2022-08-19T08:14:47.056Z,94964.81
2022-08-19T08:17:16.198Z,94973.06
2022-08-19T08:20:00.695Z,94980.81
2022-08-19T08:22:46.026Z,94976.97
2022-08-19T08:25:17.337Z,94986.66
2022-08-19T08:27:47.010Z,94983.72
2022-08-19T08:30:21.630Z,94979.72
2022-08-19T08:44:22.205Z,94997.34
2022-08-19T08:46:54.151Z,94992.09
2022-08-19T08:49:35.733Z,95002.38
2022-08-19T08:52:08.116Z,95014.53
2022-08-19T08:54:41.373Z,95001.22
2022-08-19T08:57:28.897Z,95003.75
2022-08-19T09:00:15.302Z,95004.00
2022-08-19T09:02:43.958Z,95007.50
2022-08-19T09:05:16.692Z,95006.03
2022-08-19T09:07:52.216Z,95013.03
2022-08-19T09:33:05.587Z,95015.78
2022-08-19T09:35:33.296Z,95022.63
2022-08-19T09:38:18.357Z,95019.00
2022-08-19T09:40:46.034Z,95014.16
2022-08-19T09:43:13.724Z,95008.88
2022-08-19T09:45:42.065Z,95008.63
2022-08-19T09:48:11.820Z,94998.69
2022-08-19T09:50:51.726Z,94997.88
2022-08-19T09:53:20.334Z,94995.22
2022-08-19T09:55:48.069Z,95003.84
2022-08-19T09:58:15.810Z,95005.44
2022-08-19T10:00:43.564Z,95006.13
2022-08-19T10:03:19.993Z,95018.28
2022-08-19T10:05:50.590Z,95022.84
2022-08-19T10:08:26.689Z,95030.47
2022-08-19T10:10:55.839Z,95022.69
2022-08-19T10:13:27.063Z,95030.53
2022-08-19T10:15:56.883Z,95018.19
2022-08-19T10:18:27.276Z,95008.41
2022-08-19T10:21:09.535Z,95016.56
2022-08-19T10:23:42.460Z,95015.22
2022-08-19T10:26:10.156Z,95013.97
2022-08-19T10:28:39.213Z,95013.81
2022-08-19T10:31:08.318Z,95011.88
2022-08-19T10:33:53.483Z,95003.16
2022-08-19T10:36:24.563Z,95003.31
2022-08-19T10:38:56.959Z,94994.25
2022-08-19T10:41:28.162Z,94993.72
2022-08-19T10:43:58.938Z,94993.16
2022-08-19T10:46:33.457Z,94997.66
2022-08-19T10:49:03.534Z,95007.03
2022-08-19T11:09:33.313Z,94995.97
2022-08-19T11:19:29.096Z,94982.50
2022-08-19T11:21:56.564Z,94973.75
2022-08-19T11:24:27.734Z,94979.25
2022-08-19T11:27:01.476Z,94977.81
2022-08-19T12:33:01.294Z,95017.34
2022-08-19T12:54:05.955Z,95022.88
2022-08-19T12:56:34.382Z,95024.56
2022-08-19T12:59:03.664Z,95025.63
2022-08-19T13:01:33.770Z,95024.66
2022-08-19T13:04:01.661Z,95030.91
2022-08-19T13:06:29.513Z,95035.97
2022-08-19T13:08:59.639Z,95028.19
2022-08-19T13:11:33.285Z,95024.00
2022-08-19T13:14:02.063Z,95016.66
2022-08-19T13:16:30.006Z,95019.53
2022-08-19T13:18:58.554Z,95018.34
2022-08-19T13:21:30.868Z,95012.50
2022-08-19T13:23:59.125Z,95020.84
2022-08-19T13:26:28.203Z,95002.94
2022-08-19T13:29:13.575Z,95002.56
2022-08-19T13:32:00.401Z,94999.69
2022-08-19T13:34:32.081Z,94999.69
2022-08-19T13:37:00.486Z,95009.88
2022-08-19T13:39:28.370Z,95008.66
2022-08-19T13:41:57.820Z,95007.84
2022-08-19T13:44:25.710Z,95002.94
2022-08-19T13:46:54.488Z,94999.91
2022-08-19T13:49:24.092Z,95009.25
2022-08-19T13:51:51.939Z,95012.09
2022-08-19T13:54:19.665Z,95004.59
2022-08-19T13:56:47.959Z,95012.72
2022-08-19T13:59:17.520Z,95001.53
2022-08-19T14:01:45.272Z,95018.00
2022-08-19T14:04:13.027Z,95015.56
2022-08-19T14:06:40.765Z,95011.47
2022-08-19T14:09:08.705Z,95011.91
2022-08-19T14:11:36.527Z,95010.88
2022-08-19T14:14:04.243Z,95021.63
2022-08-19T14:16:33.347Z,95014.94
2022-08-19T14:19:01.026Z,95013.34
2022-08-19T14:32:53.067Z,95019.84
2022-08-19T14:35:22.115Z,95026.16
2022-08-19T14:37:51.624Z,95026.59
2022-08-19T14:55:32.697Z,95036.72
2022-08-19T14:58:00.457Z,95033.88
2022-08-19T15:00:30.214Z,95039.97
2022-08-19T15:03:00.021Z,95039.00
2022-08-19T15:05:28.661Z,95035.53
2022-08-19T15:19:20.929Z,95046.09
2022-08-19T15:21:48.679Z,95042.44
2022-08-19T15:24:16.679Z,95035.53
2022-08-19T15:34:24.987Z,95063.97
2022-08-19T16:03:45.806Z,95085.84
2022-08-19T16:06:27.091Z,95085.44
2022-08-19T16:08:55.432Z,95084.09
2022-08-19T16:15:31.959Z,95086.06
2022-08-19T16:18:03.330Z,95083.88
2022-08-19T16:20:41.238Z,95083.28
2022-08-19T16:23:09.117Z,95091.84
2022-08-19T16:25:36.805Z,95087.16
2022-08-19T16:28:07.571Z,95088.47
2022-08-19T16:30:37.870Z,95108.63
2022-08-19T16:33:05.631Z,95095.03
2022-08-19T16:39:16.588Z,95107.41
2022-08-19T16:41:46.234Z,95105.03
2022-08-19T16:44:16.049Z,95108.47
2022-08-19T16:46:43.822Z,95109.41
2022-08-19T16:49:14.689Z,95117.69
2022-08-19T16:51:44.208Z,95116.28
2022-08-19T16:57:54.121Z,95119.13
2022-08-19T17:07:50.664Z,95131.13
2022-08-19T17:14:02.072Z,95153.72
2022-08-19T17:16:32.039Z,95162.44
2022-08-19T17:19:02.287Z,95159.16
2022-08-19T17:21:33.098Z,95153.81
2022-08-19T17:24:02.450Z,95155.34
2022-08-19T17:26:30.750Z,95169.66
2022-08-19T17:29:01.246Z,95164.44
2022-08-19T17:35:24.401Z,95175.19
2022-08-19T17:41:57.085Z,95178.38
2022-08-19T17:44:33.089Z,95171.78
2022-08-19T17:47:00.783Z,95184.25
2022-08-19T17:49:28.566Z,95179.84
2022-08-19T17:51:56.438Z,95192.38
2022-08-19T17:54:25.499Z,95181.38
2022-08-19T17:57:02.280Z,95193.09
2022-08-19T17:59:31.360Z,95190.94
2022-08-19T18:02:00.695Z,95192.47
2022-08-19T18:04:38.290Z,95204.38
2022-08-19T18:07:06.378Z,95201.00
2022-08-19T18:09:41.769Z,95202.19
2022-08-19T18:12:11.803Z,95197.63
2022-08-19T18:14:42.380Z,95201.72
2022-08-19T18:17:12.805Z,95207.25
2022-08-19T18:19:43.996Z,95208.53
2022-08-19T18:22:14.538Z,95211.22
2022-08-19T18:24:45.857Z,95214.63
2022-08-19T18:27:13.910Z,95216.16
2022-08-19T18:29:43.419Z,95211.53
2022-08-19T18:32:13.603Z,95214.78
2022-08-19T18:34:42.014Z,95218.53
2022-08-19T18:37:09.942Z,95218.22
2022-08-19T18:39:55.411Z,95219.06
2022-08-19T18:42:40.358Z,95214.25
2022-08-19T18:45:28.505Z,95217.50
2022-08-19T18:48:27.118Z,95220.69
2022-08-19T18:50:56.413Z,95226.06
2022-08-19T18:53:24.102Z,95234.31
2022-08-19T18:55:53.832Z,95238.44
2022-08-19T18:58:25.902Z,95236.25
2022-08-19T19:01:09.074Z,95238.63
2022-08-19T19:03:37.137Z,95234.78
2022-08-19T19:06:05.913Z,95241.78
2022-08-19T19:08:33.782Z,95239.88
2022-08-19T19:11:05.121Z,95243.56
2022-08-19T19:24:59.270Z,95251.47
2022-08-19T19:27:27.133Z,95248.84
2022-08-19T19:29:55.683Z,95249.19
2022-08-19T19:32:26.093Z,95251.16
2022-08-19T19:34:53.945Z,95256.78
2022-08-19T19:37:22.508Z,95256.16
2022-08-19T19:39:50.516Z,95261.50
2022-08-19T19:42:23.682Z,95260.34
2022-08-19T19:44:54.808Z,95264.91
2022-08-19T19:47:24.289Z,95261.28
2022-08-19T19:50:13.213Z,95265.41
2022-08-19T19:52:40.557Z,95265.75
2022-08-19T19:55:09.477Z,95271.03
2022-08-19T19:57:39.702Z,95271.41
2022-08-19T20:00:09.971Z,95273.00
2022-08-19T20:18:09.321Z,95299.25
2022-08-19T20:20:37.051Z,95312.59
2022-08-19T20:23:09.426Z,95312.59
2022-08-19T20:25:43.195Z,95306.81
2022-08-19T20:28:12.323Z,95312.97
2022-08-19T20:30:46.241Z,95320.38
2022-08-19T20:44:56.872Z,95331.53
2022-08-19T20:47:25.020Z,95325.19
2022-08-19T20:49:53.225Z,95317.34
2022-08-19T20:52:21.005Z,95315.34
2022-08-19T20:54:48.715Z,95319.38
2022-08-19T20:57:16.509Z,95323.81
2022-08-19T20:59:44.901Z,95318.88
2022-08-19T21:02:14.016Z,95319.94
2022-08-19T21:04:41.853Z,95316.94
2022-08-19T21:07:09.656Z,95328.06
2022-08-19T21:09:38.398Z,95325.44
2022-08-19T21:12:06.846Z,95321.59
2022-08-19T21:14:35.080Z,95335.53
2022-08-19T21:17:02.787Z,95326.53
2022-08-19T21:19:31.843Z,95324.69
2022-08-19T21:22:00.840Z,95329.78
2022-08-19T21:24:31.491Z,95329.84
2022-08-19T21:26:59.855Z,95330.50
2022-08-19T21:33:18.333Z,95326.75
2022-08-19T21:35:47.380Z,95332.78
2022-08-19T21:38:15.130Z,95332.97
2022-08-19T21:40:42.998Z,95325.22
2022-08-19T21:43:10.691Z,95331.13
2022-08-19T21:45:38.459Z,95330.97
2022-08-19T21:48:06.883Z,95330.47
2022-08-19T21:54:16.982Z,95337.03
2022-08-19T21:56:44.665Z,95334.19
2022-08-19T21:59:12.376Z,95337.56
2022-08-19T22:01:40.868Z,95340.16
2022-08-19T22:04:10.566Z,95345.13
2022-08-19T22:06:38.459Z,95338.25
2022-08-19T22:09:06.517Z,95324.50
2022-08-19T22:11:36.314Z,95330.09
2022-08-19T22:14:05.663Z,95326.09
2022-08-19T22:16:36.012Z,95327.00
2022-08-19T22:19:03.746Z,95329.38
2022-08-19T22:33:01.250Z,95310.03
2022-08-19T22:35:31.507Z,95314.94
2022-08-19T22:37:59.898Z,95306.41
2022-08-19T22:40:29.722Z,95315.78
2022-08-19T22:43:03.392Z,95312.03
2022-08-19T23:04:32.667Z,95318.81
2022-08-19T23:06:59.078Z,95318.16
2022-08-19T23:09:25.483Z,95322.59
2022-08-19T23:11:57.033Z,95316.47
2022-08-19T23:14:23.426Z,95307.59
2022-08-19T23:17:08.898Z,95312.84
2022-08-19T23:19:37.710Z,95311.84
2022-08-19T23:25:57.812Z,95319.25
2022-08-19T23:28:42.485Z,95311.94
2022-08-19T23:31:08.918Z,95325.28
2022-08-19T23:33:46.842Z,95303.78
2022-08-19T23:36:19.344Z,95315.28
2022-08-19T23:38:48.070Z,95308.34
2022-08-19T23:41:17.076Z,95308.16
2022-08-19T23:43:45.419Z,95307.31
2022-08-19T23:50:14.207Z,95292.38
2022-08-19T23:52:47.071Z,95296.28
2022-08-19T23:55:15.981Z,95294.53
2022-08-19T23:57:45.025Z,95302.25
